Time;durP1;ratioP1;P1;durP2;ratioP2;P2;SDS_P1;SDS_P2;PMS_P1;PMS_P2;Temp;Humidity;BMP_temperature;BMP_pressure;BME280_temperature;BME280_humidity;BME280_pressure;Samples;Min_cycle;Max_cycle;Signal;HPM_P1;HPM_P2
2022/04/09 00:01:05;;;;;;;;;;;;;;;21.11;42.89;99033.06;4975335;28;4254;-49
2022/04/09 00:03:31;;;;;;;;;;;;;;;21.11;42.80;99040.97;4973279;28;5078;-47
2022/04/09 00:05:57;;;;;;;;;;;;;;;21.12;42.74;99043.16;4974953;28;4222;-48
2022/04/09 00:08:24;;;;;;;;;;;;;;;21.13;42.78;99055.38;4974667;28;5296;-50
2022/04/09 00:10:50;;;;;;;;;;;;;;;21.09;42.75;99052.44;4976896;28;4170;-47
2022/04/09 00:13:16;;;;;;;;;;;;;;;21.10;42.74;99053.91;4973903;28;4249;-47
2022/04/09 00:15:43;;;;;;;;;;;;;;;21.10;42.85;99065.44;4975198;28;5336;-49
2022/04/09 00:18:12;;;;;;;;;;;;;;;21.07;42.76;99056.03;4973667;28;5328;-48
2022/04/09 00:20:38;;;;;;;;;;;;;;;21.07;42.87;99061.03;4974759;28;4228;-47
2022/04/09 00:23:04;;;;;;;;;;;;;;;21.07;42.84;99052.41;4975590;28;4054;-47
2022/04/09 00:25:31;;;;;;;;;;;;;;;21.07;42.76;99058.91;4975365;28;4555;-47
2022/04/09 00:27:57;;;;;;;;;;;;;;;21.06;42.74;99048.09;4972340;28;4092;-47
2022/04/09 00:30:23;;;;;;;;;;;;;;;21.05;42.90;99061.00;4969040;28;4108;-50
2022/04/09 00:32:50;;;;;;;;;;;;;;;21.04;42.78;99062.44;4974438;28;4341;-48
2022/04/09 00:35:16;;;;;;;;;;;;;;;21.05;42.68;99052.38;4971822;28;4362;-49
2022/04/09 00:37:46;;;;;;;;;;;;;;;21.01;42.98;99053.06;4971105;28;4506;-48
2022/04/09 00:40:13;;;;;;;;;;;;;;;21.00;42.89;99053.75;4976211;28;4243;-47
2022/04/09 00:42:42;;;;;;;;;;;;;;;21.00;42.74;99056.63;4973608;28;4453;-49
2022/04/09 00:45:09;;;;;;;;;;;;;;;21.00;42.85;99068.13;4958966;28;4364;-48
2022/04/09 00:47:36;;;;;;;;;;;;;;;20.99;42.86;99060.94;4976329;28;4248;-48
2022/04/09 00:50:03;;;;;;;;;;;;;;;20.99;42.78;99060.94;4973373;28;4585;-48
2022/04/09 00:52:30;;;;;;;;;;;;;;;21.00;42.83;99059.50;4976971;28;4120;-48
2022/04/09 00:54:56;;;;;;;;;;;;;;;21.00;42.77;99068.84;4973189;28;4250;-52
2022/04/09 00:57:25;;;;;;;;;;;;;;;21.02;42.80;99076.81;4977024;28;4065;-49
2022/04/09 00:59:51;;;;;;;;;;;;;;;21.03;42.66;99079.00;4973496;28;5340;-51
2022/04/09 01:02:17;;;;;;;;;;;;;;;21.02;42.81;99079.69;4975728;28;4171;-50
2022/04/09 01:04:44;;;;;;;;;;;;;;;21.03;42.70;99086.91;4978102;28;4675;-47
2022/04/09 01:07:11;;;;;;;;;;;;;;;21.02;42.70;99088.31;4973030;28;4335;-47
2022/04/09 01:09:37;;;;;;;;;;;;;;;21.00;42.79;99088.28;4973879;28;4119;-48
2022/04/09 01:12:04;;;;;;;;;;;;;;;21.01;42.53;99086.88;4977791;28;4973;-50
2022/04/09 01:14:34;;;;;;;;;;;;;;;21.03;42.73;99098.41;4954016;28;4222;-48
2022/04/09 01:17:00;;;;;;;;;;;;;;;21.04;42.64;99096.97;4975796;28;4044;-49
2022/04/09 01:19:27;;;;;;;;;;;;;;;21.04;42.66;99108.50;4974012;28;4230;-50
2022/04/09 01:22:00;;;;;;;;;;;;;;;21.07;42.61;99107.84;4972030;28;4231;-48
2022/04/09 01:24:28;;;;;;;;;;;;;;;21.05;42.49;99109.94;4973946;28;4285;-49
2022/04/09 01:26:54;;;;;;;;;;;;;;;21.04;42.51;99120.72;4959385;28;4306;-47
2022/04/09 01:29:26;;;;;;;;;;;;;;;21.01;42.60;99116.38;4968400;28;4187;-49
2022/04/09 01:31:52;;;;;;;;;;;;;;;21.04;42.57;99114.25;4971228;28;4247;-50
2022/04/09 01:34:19;;;;;;;;;;;;;;;21.03;42.61;99130.06;4975018;28;5577;-51
2022/04/09 01:36:46;;;;;;;;;;;;;;;21.02;42.63;99128.59;4976288;28;4498;-47
2022/04/09 01:39:16;;;;;;;;;;;;;;;21.02;42.63;99140.09;4956700;28;4232;-47
2022/04/09 01:41:42;;;;;;;;;;;;;;;20.99;42.68;99135.75;4973988;28;4283;-47
2022/04/09 01:44:09;;;;;;;;;;;;;;;20.98;42.73;99145.78;4974378;28;4920;-49
2022/04/09 01:46:35;;;;;;;;;;;;;;;20.98;42.57;99140.78;4973899;28;4152;-49
2022/04/09 01:49:02;;;;;;;;;;;;;;;20.98;42.67;99145.78;4958154;28;4482;-50
2022/04/09 01:51:28;;;;;;;;;;;;;;;20.97;42.64;99150.09;4973202;28;4339;-51
2022/04/09 01:53:55;;;;;;;;;;;;;;;20.96;42.64;99154.38;4968777;28;4245;-47
2022/04/09 01:56:22;;;;;;;;;;;;;;;20.97;42.80;99150.81;4973080;28;4217;-48
2022/04/09 01:58:49;;;;;;;;;;;;;;;20.97;42.74;99150.09;4957171;28;4349;-49
2022/04/09 02:01:18;;;;;;;;;;;;;;;20.95;42.74;99158.69;4970246;28;4412;-51
2022/04/09 02:03:45;;;;;;;;;;;;;;;20.95;42.65;99168.03;4961159;28;5181;-47
2022/04/09 02:06:11;;;;;;;;;;;;;;;20.94;42.66;99169.47;4970925;28;4087;-49
2022/04/09 02:08:38;;;;;;;;;;;;;;;20.93;42.49;99168.72;4971733;28;4097;-49
2022/04/09 02:11:04;;;;;;;;;;;;;;;20.91;42.69;99177.34;4970209;28;4283;-48
2022/04/09 02:13:32;;;;;;;;;;;;;;;20.90;42.73;99181.63;4974094;28;4087;-47
2022/04/09 02:15:59;;;;;;;;;;;;;;;20.90;42.69;99186.66;4975293;28;5504;-48
2022/04/09 02:18:28;;;;;;;;;;;;;;;20.89;42.64;99185.19;4973016;28;4173;-46
2022/04/09 02:20:55;;;;;;;;;;;;;;;20.90;42.62;99187.38;4971999;28;4001;-52
2022/04/09 02:23:21;;;;;;;;;;;;;;;20.92;42.58;99196.06;4960576;28;5013;-49
2022/04/09 02:25:48;;;;;;;;;;;;;;;20.91;42.71;99191.00;4972824;28;4187;-48
2022/04/09 02:28:14;;;;;;;;;;;;;;;20.89;42.80;99191.69;4972223;28;5381;-48
2022/04/09 02:30:41;;;;;;;;;;;;;;;20.90;42.68;99201.78;4972183;28;4085;-50
2022/04/09 02:33:11;;;;;;;;;;;;;;;20.90;42.77;99207.53;4973598;28;4302;-50
2022/04/09 02:35:42;;;;;;;;;;;;;;;20.91;42.79;99206.13;4971768;28;5559;-50
2022/04/09 02:38:10;;;;;;;;;;;;;;;20.87;42.91;99211.06;4957018;28;4968;-48
2022/04/09 02:40:37;;;;;;;;;;;;;;;20.90;42.75;99219.03;4972041;28;4305;-49
2022/04/09 02:43:06;;;;;;;;;;;;;;;20.89;42.96;99213.97;4972911;28;5352;-49
2022/04/09 02:45:33;;;;;;;;;;;;;;;20.92;42.91;99224.84;4971408;28;5604;-47
2022/04/09 02:48:03;;;;;;;;;;;;;;;20.89;43.26;99226.22;4972526;28;4174;-49
2022/04/09 02:50:32;;;;;;;;;;;;;;;20.92;43.09;99233.47;4975775;28;4156;-48
2022/04/09 02:52:59;;;;;;;;;;;;;;;20.96;43.28;99241.44;4973711;28;4002;-49
2022/04/09 02:55:26;;;;;;;;;;;;;;;20.95;43.63;99239.25;4969515;28;4215;-50
2022/04/09 02:57:52;;;;;;;;;;;;;;;20.98;43.23;99249.38;4975368;28;4095;-47
2022/04/09 03:00:22;;;;;;;;;;;;;;;20.97;43.43;99259.44;4975318;28;4381;-50
2022/04/09 03:02:50;;;;;;;;;;;;;;;20.99;43.32;99253.72;4970810;28;5354;-49
2022/04/09 03:05:22;;;;;;;;;;;;;;;20.95;43.51;99268.75;4972801;28;4017;-49
2022/04/09 03:07:48;;;;;;;;;;;;;;;21.01;43.24;99271.03;4974487;28;4249;-51
2022/04/09 03:10:15;;;;;;;;;;;;;;;21.07;43.21;99279.75;4969418;28;4144;-53
2022/04/09 03:12:44;;;;;;;;;;;;;;;21.06;43.27;99284.78;4971116;28;4232;-51
2022/04/09 03:15:13;;;;;;;;;;;;;;;21.06;43.73;99289.81;4959696;28;5450;-51
2022/04/09 03:17:40;;;;;;;;;;;;;;;21.10;43.60;99289.91;4973474;28;5517;-48
2022/04/09 03:20:07;;;;;;;;;;;;;;;21.11;43.59;99297.09;4971952;28;4320;-47
2022/04/09 03:22:34;;;;;;;;;;;;;;;21.18;43.65;99306.56;4970955;28;4301;-57
2022/04/09 03:25:02;;;;;;;;;;;;;;;21.14;43.54;99307.22;4971825;28;4593;-47
2022/04/09 03:27:29;;;;;;;;;;;;;;;21.02;43.57;99312.75;4970442;28;6120;-47
2022/04/09 03:29:59;;;;;;;;;;;;;;;21.00;44.02;99315.59;4972739;28;4192;-47
2022/04/09 03:32:26;;;;;;;;;;;;;;;21.00;44.03;99313.44;4972010;28;6414;-49
2022/04/09 03:34:53;;;;;;;;;;;;;;;21.04;43.87;99310.66;4969946;28;4172;-47
2022/04/09 03:37:23;;;;;;;;;;;;;;;21.08;43.80;99327.28;4978577;28;4262;-48
2022/04/09 03:39:50;;;;;;;;;;;;;;;21.04;43.89;99325.03;4961825;28;5341;-46
2022/04/09 03:42:16;;;;;;;;;;;;;;;21.05;43.91;99328.63;4976718;28;5306;-46
2022/04/09 03:44:50;;;;;;;;;;;;;;;21.05;43.79;99328.63;4975288;28;4259;-46
2022/04/09 03:47:16;;;;;;;;;;;;;;;21.07;43.82;99343.06;4962580;28;5321;-47
2022/04/09 03:49:43;;;;;;;;;;;;;;;21.04;43.81;99344.44;4960843;28;4142;-49
2022/04/09 03:52:09;;;;;;;;;;;;;;;21.05;43.74;99343.03;4976155;28;5422;-49
2022/04/09 03:54:38;;;;;;;;;;;;;;;21.05;43.88;99340.91;4977412;28;4095;-47
2022/04/09 03:57:05;;;;;;;;;;;;;;;21.04;43.61;99348.06;4960193;28;4320;-54
2022/04/09 03:59:43;;;;;;;;;;;;;;;21.04;43.97;99358.84;4968026;28;4250;-47
2022/04/09 04:02:10;;;;;;;;;;;;;;;21.06;43.88;99364.66;4977744;28;4217;-48
2022/04/09 04:04:37;;;;;;;;;;;;;;;21.09;43.58;99363.25;4961780;28;4907;-49
2022/04/09 04:07:04;;;;;;;;;;;;;;;21.05;43.90;99371.81;4975524;28;4343;-46
2022/04/09 04:09:30;;;;;;;;;;;;;;;21.02;44.03;99393.34;4976539;28;4161;-45
2022/04/09 04:11:59;;;;;;;;;;;;;;;20.92;42.58;99390.97;4977095;28;4245;-48
2022/04/09 04:14:28;;;;;;;;;;;;;;;20.86;42.64;99391.56;4978442;28;4356;-47
2022/04/09 04:16:56;;;;;;;;;;;;;;;20.87;43.23;99390.16;4975851;28;5338;-45
2022/04/09 04:19:22;;;;;;;;;;;;;;;20.90;43.89;99399.56;4977495;28;4324;-48
2022/04/09 04:21:51;;;;;;;;;;;;;;;20.95;43.60;99406.13;4976823;28;4110;-45
2022/04/09 04:24:19;;;;;;;;;;;;;;;20.92;43.96;99403.22;4975678;28;4200;-45
2022/04/09 04:26:46;;;;;;;;;;;;;;;20.92;44.04;99414.72;4976632;28;4203;-45
2022/04/09 04:29:20;;;;;;;;;;;;;;;20.95;43.89;99426.28;4959182;28;4060;-45
2022/04/09 04:31:47;;;;;;;;;;;;;;;20.97;43.85;99429.19;4971711;28;4170;-49
2022/04/09 04:34:13;;;;;;;;;;;;;;;21.00;43.95;99436.44;4974192;28;4261;-47
2022/04/09 04:36:42;;;;;;;;;;;;;;;21.03;43.65;99437.97;4977757;28;4989;-45
2022/04/09 04:39:09;;;;;;;;;;;;;;;20.99;43.90;99440.75;4972637;28;5345;-47
2022/04/09 04:41:36;;;;;;;;;;;;;;;21.02;43.72;99450.88;4980423;28;5313;-45
2022/04/09 04:44:03;;;;;;;;;;;;;;;21.01;43.64;99455.91;4976256;28;4280;-48
2022/04/09 04:46:39;;;;;;;;;;;;;;;21.01;43.74;99455.19;4973956;28;4194;-45
2022/04/09 04:49:07;;;;;;;;;;;;;;;21.00;43.81;99465.22;4974047;28;4416;-46
2022/04/09 04:51:34;;;;;;;;;;;;;;;21.00;43.79;99468.09;4975299;28;4262;-48
2022/04/09 04:54:03;;;;;;;;;;;;;;;21.00;43.64;99473.84;4970141;28;4068;-46
2022/04/09 04:56:31;;;;;;;;;;;;;;;20.97;43.84;99475.25;4973707;28;6508;-46
2022/04/09 04:58:59;;;;;;;;;;;;;;;20.95;43.97;99486.69;4972747;28;4187;-47
2022/04/09 05:01:26;;;;;;;;;;;;;;;20.96;43.85;99488.91;4969847;28;4203;-48
2022/04/09 05:04:00;;;;;;;;;;;;;;;20.96;43.84;99493.91;4956893;28;4268;-49
2022/04/09 05:06:30;;;;;;;;;;;;;;;20.98;43.80;99493.97;4973529;28;4191;-47
2022/04/09 05:08:57;;;;;;;;;;;;;;;20.97;43.83;99495.38;4957770;28;4918;-45
2022/04/09 05:11:36;;;;;;;;;;;;;;;20.93;43.97;99502.50;4970159;28;4173;-45
2022/04/09 05:14:07;;;;;;;;;;;;;;;20.96;43.65;99499.66;4954327;28;4272;-46
2022/04/09 05:16:37;;;;;;;;;;;;;;;21.01;43.59;99507.00;4971514;28;4179;-47
2022/04/09 05:19:05;;;;;;;;;;;;;;;20.98;43.75;99520.59;4958720;28;4048;-50
2022/04/09 05:21:33;;;;;;;;;;;;;;;20.95;43.85;99527.00;4958306;28;4228;-45
2022/04/09 05:24:01;;;;;;;;;;;;;;;20.96;43.74;99534.19;4972349;28;4255;-47
2022/04/09 05:26:29;;;;;;;;;;;;;;;20.95;43.76;99535.63;4955683;28;4154;-48
2022/04/09 05:28:56;;;;;;;;;;;;;;;20.93;43.81;99539.91;4970919;28;5524;-46
2022/04/09 05:31:27;;;;;;;;;;;;;;;20.95;43.68;99544.25;4957916;28;4360;-48
2022/04/09 05:33:55;;;;;;;;;;;;;;;20.95;43.73;99544.97;4972533;28;4104;-45
2022/04/09 05:36:22;;;;;;;;;;;;;;;20.96;43.64;99552.22;4955881;28;4102;-45
2022/04/09 05:38:52;;;;;;;;;;;;;;;21.01;43.83;99558.78;4959642;28;5026;-45
2022/04/09 05:41:18;;;;;;;;;;;;;;;21.06;43.64;99566.09;4966089;28;4107;-45
2022/04/09 05:43:45;;;;;;;;;;;;;;;21.04;43.38;99571.81;4969859;28;5692;-45
2022/04/09 05:46:15;;;;;;;;;;;;;;;21.03;43.51;99579.72;4971821;28;5335;-47
2022/04/09 05:48:41;;;;;;;;;;;;;;;20.99;43.64;99579.59;4955870;28;4216;-46
2022/04/09 05:51:08;;;;;;;;;;;;;;;21.00;43.59;99595.44;4971447;28;4294;-45
2022/04/09 05:53:39;;;;;;;;;;;;;;;21.01;43.62;99596.19;4959425;28;4102;-49
2022/04/09 05:56:07;;;;;;;;;;;;;;;20.06;40.91;99599.50;4954081;28;5145;-48
2022/04/09 05:58:40;;;;;;;;;;;;;;;19.09;39.58;99614.59;4954211;28;5552;-45
2022/04/09 06:01:07;;;;;;;;;;;;;;;18.86;40.01;99619.59;4971500;28;4169;-46
2022/04/09 06:03:34;;;;;;;;;;;;;;;18.52;38.90;99624.88;4971841;28;4260;-49
2022/04/09 06:06:02;;;;;;;;;;;;;;;18.04;38.71;99630.38;4971556;28;4068;-46
2022/04/09 06:08:35;;;;;;;;;;;;;;;17.72;38.31;99644.94;4958293;28;4178;-46
2022/04/09 06:11:11;;;;;;;;;;;;;;;17.48;38.50;99651.19;4970119;28;4510;-46
2022/04/09 06:13:38;;;;;;;;;;;;;;;17.51;38.17;99643.41;4957665;28;4189;-46
2022/04/09 06:16:08;;;;;;;;;;;;;;;17.40;38.01;99645.16;4968235;28;4321;-46
2022/04/09 06:18:38;;;;;;;;;;;;;;;17.06;38.33;99659.53;4953768;28;4094;-46
2022/04/09 06:21:05;;;;;;;;;;;;;;;16.93;38.54;99666.16;4959341;28;4378;-46
2022/04/09 06:23:31;;;;;;;;;;;;;;;17.88;37.46;99659.16;4966936;28;4317;-46
2022/04/09 06:25:57;;;;;;;;;;;;;;;18.26;37.35;99665.56;4956344;28;4497;-47
2022/04/09 06:28:31;;;;;;;;;;;;;;;18.39;37.69;99673.19;4955514;28;4173;-46
2022/04/09 06:30:58;;;;;;;;;;;;;;;18.42;37.42;99677.59;4970122;28;5030;-49
2022/04/09 06:33:25;;;;;;;;;;;;;;;18.43;37.71;99673.31;4955322;28;4317;-47
2022/04/09 06:35:55;;;;;;;;;;;;;;;18.36;38.02;99685.25;4970205;28;4270;-47
2022/04/09 06:38:27;;;;;;;;;;;;;;;18.09;37.29;99686.41;4966073;28;4091;-47
2022/04/09 06:40:54;;;;;;;;;;;;;;;18.28;37.48;99691.44;4969329;28;5804;-47
2022/04/09 06:43:30;;;;;;;;;;;;;;;18.70;37.44;99696.47;4968998;28;4240;-46
2022/04/09 06:46:08;;;;;;;;;;;;;;;18.92;38.12;99700.13;4953621;28;4120;-47
2022/04/09 06:48:48;;;;;;;;;;;;;;;19.14;38.08;99700.13;4961728;28;4064;-46
2022/04/09 06:51:35;;;;;;;;;;;;;;;19.28;38.29;99705.59;4972027;28;5589;-46
2022/04/09 06:54:09;;;;;;;;;;;;;;;19.40;38.26;99708.09;4956804;28;4170;-49
2022/04/09 06:56:39;;;;;;;;;;;;;;;19.43;38.59;99712.53;4951004;28;4181;-46
2022/04/09 06:59:05;;;;;;;;;;;;;;;19.48;38.54;99719.13;4973271;28;5501;-48
2022/04/09 07:01:32;;;;;;;;;;;;;;;19.43;38.33;99729.75;4947365;28;4040;-47
2022/04/09 07:04:00;;;;;;;;;;;;;;;19.35;38.13;99729.47;4948337;28;5557;-59
2022/04/09 07:06:26;;;;;;;;;;;;;;;18.96;36.72;99728.91;4950615;28;6200;-52
2022/04/09 07:08:53;;;;;;;;;;;;;;;19.18;37.55;99743.28;4955017;28;4138;-51
2022/04/09 07:11:19;;;;;;;;;;;;;;;19.45;37.22;99744.16;4954736;28;4415;-52
2022/04/09 07:13:45;;;;;;;;;;;;;;;19.55;37.22;99750.22;4956016;28;4069;-53
2022/04/09 07:16:12;;;;;;;;;;;;;;;19.61;37.11;99752.56;4958103;28;4261;-50
2022/04/09 07:18:38;;;;;;;;;;;;;;;19.69;37.00;99752.13;4958683;28;4103;-49
2022/04/09 07:21:05;;;;;;;;;;;;;;;19.76;37.20;99765.25;4960013;28;6457;-52
2022/04/09 07:23:31;;;;;;;;;;;;;;;19.87;37.60;99770.66;4956780;28;5369;-54
2022/04/09 07:25:57;;;;;;;;;;;;;;;20.01;37.71;99763.88;4957883;28;6180;-54
2022/04/09 07:28:24;;;;;;;;;;;;;;;18.26;37.57;99765.13;4959973;28;4189;-54
2022/04/09 07:30:50;;;;;;;;;;;;;;;19.18;37.98;99777.72;4959249;28;4208;-51
2022/04/09 07:33:16;;;;;;;;;;;;;;;19.62;38.02;99774.13;4958541;28;4118;-50
2022/04/09 07:35:43;;;;;;;;;;;;;;;19.83;37.79;99775.53;4959029;28;4291;-53
2022/04/09 07:38:09;;;;;;;;;;;;;;;20.00;38.09;99786.13;4956448;28;5240;-54
2022/04/09 07:40:36;;;;;;;;;;;;;;;20.13;38.09;99789.38;4958970;28;4182;-55
2022/04/09 07:43:02;;;;;;;;;;;;;;;20.21;38.16;99795.38;4959496;28;4218;-55
2022/04/09 07:45:29;;;;;;;;;;;;;;;20.25;38.17;99801.25;4955707;28;5504;-53
2022/04/09 07:47:55;;;;;;;;;;;;;;;20.33;38.23;99795.72;4958697;28;4297;-53
2022/04/09 07:50:22;;;;;;;;;;;;;;;20.37;38.58;99798.72;4954099;28;4165;-55
2022/04/09 07:52:48;;;;;;;;;;;;;;;20.41;38.38;99798.84;4956573;28;4008;-52
2022/04/09 07:55:16;;;;;;;;;;;;;;;20.44;38.60;99806.13;4955335;28;5378;-51
2022/04/09 07:57:43;;;;;;;;;;;;;;;20.48;38.75;99806.25;4955236;28;4429;-55
2022/04/09 08:00:10;;;;;;;;;;;;;;;20.53;38.72;99817.88;4956744;28;4245;-54
2022/04/09 08:02:39;;;;;;;;;;;;;;;20.56;38.90;99811.50;4956634;28;4071;-53
2022/04/09 08:05:06;;;;;;;;;;;;;;;20.61;38.92;99813.09;4958869;28;4230;-58
2022/04/09 08:07:32;;;;;;;;;;;;;;;20.66;38.96;99813.94;4958066;28;5323;-53
2022/04/09 08:09:59;;;;;;;;;;;;;;;20.73;38.84;99811.97;4960057;28;4322;-53
2022/04/09 08:12:25;;;;;;;;;;;;;;;20.74;38.97;99819.94;4954904;28;4183;-54
2022/04/09 08:14:51;;;;;;;;;;;;;;;20.76;39.04;99820.00;4955996;28;5309;-55
2022/04/09 08:17:20;;;;;;;;;;;;;;;20.78;39.03;99831.56;4958706;28;5324;-56
2022/04/09 08:19:47;;;;;;;;;;;;;;;20.81;39.26;99841.72;4960068;28;4254;-54
2022/04/09 08:22:13;;;;;;;;;;;;;;;20.82;39.30;99831.69;4957144;28;4453;-57
2022/04/09 08:24:41;;;;;;;;;;;;;;;20.83;39.27;99841.78;4958826;28;4223;-51
2022/04/09 08:27:10;;;;;;;;;;;;;;;20.85;39.35;99841.84;4957945;28;4376;-53
2022/04/09 08:29:36;;;;;;;;;;;;;;;20.87;39.47;99838.28;4956935;28;5246;-53
2022/04/09 08:32:04;;;;;;;;;;;;;;;20.87;39.53;99852.66;4960405;28;4569;-53
2022/04/09 08:34:35;;;;;;;;;;;;;;;20.88;39.54;99846.22;4958202;28;4165;-54
2022/04/09 08:37:01;;;;;;;;;;;;;;;20.87;39.57;99850.53;4955096;28;5596;-54
2022/04/09 08:39:28;;;;;;;;;;;;;;;20.85;39.69;99864.84;4951249;28;4209;-55
2022/04/09 08:41:54;;;;;;;;;;;;;;;20.87;39.54;99867.06;4954974;28;4239;-54
2022/04/09 08:44:21;;;;;;;;;;;;;;;20.86;39.71;99854.78;4972119;28;5226;-49
2022/04/09 08:46:48;;;;;;;;;;;;;;;20.88;39.68;99863.47;4959337;28;4580;-53
2022/04/09 08:49:20;;;;;;;;;;;;;;;20.87;39.67;99859.16;4952534;28;5772;-53
2022/04/09 08:51:47;;;;;;;;;;;;;;;20.87;39.78;99867.78;4970966;28;4222;-55
2022/04/09 08:54:13;;;;;;;;;;;;;;;20.89;39.76;99870.72;4968924;28;4532;-60
2022/04/09 08:56:40;;;;;;;;;;;;;;;20.42;37.45;99869.31;4976577;28;5255;-56
2022/04/09 08:59:06;;;;;;;;;;;;;;;20.68;39.74;99863.66;4975438;28;4282;-53
2022/04/09 09:01:32;;;;;;;;;;;;;;;20.76;39.87;99874.66;4976770;28;4196;-58
2022/04/09 09:03:59;;;;;;;;;;;;;;;20.78;39.88;99874.72;4978064;28;4268;-57
2022/04/09 09:06:30;;;;;;;;;;;;;;;20.85;39.88;99867.72;4975467;28;4306;-55
2022/04/09 09:09:00;;;;;;;;;;;;;;;20.74;39.87;99877.47;4977503;28;4218;-54
2022/04/09 09:11:29;;;;;;;;;;;;;;;20.76;40.07;99880.41;4979851;28;4399;-51
2022/04/09 09:13:56;;;;;;;;;;;;;;;20.81;39.91;99870.47;4978911;28;4156;-53
2022/04/09 09:16:23;;;;;;;;;;;;;;;20.85;39.85;99881.38;4977172;28;5203;-53
2022/04/09 09:18:51;;;;;;;;;;;;;;;20.88;40.03;99886.50;4978792;28;4182;-53
2022/04/09 09:21:19;;;;;;;;;;;;;;;20.89;40.03;99876.47;4980152;28;5359;-54
2022/04/09 09:23:45;;;;;;;;;;;;;;;20.90;40.00;99880.09;4978126;28;4265;-53
2022/04/09 09:26:12;;;;;;;;;;;;;;;20.92;39.98;99892.38;4976394;28;4098;-52
2022/04/09 09:28:38;;;;;;;;;;;;;;;20.95;40.14;99878.06;4977183;28;4626;-51
2022/04/09 09:31:05;;;;;;;;;;;;;;;20.93;40.16;99878.72;4976523;28;4213;-54
2022/04/09 09:33:31;;;;;;;;;;;;;;;20.95;40.26;99881.66;4977729;28;4211;-53
2022/04/09 09:36:29;;;;;;;;;;;;;;;20.98;40.24;99888.22;4977283;28;4178;-51
2022/04/09 09:39:01;;;;;;;;;;;;;;;20.99;40.18;99878.91;4976886;28;4168;-51
2022/04/09 09:41:27;;;;;;;;;;;;;;;20.99;40.06;99884.66;4978328;28;4077;-52
2022/04/09 09:44:06;;;;;;;;;;;;;;;21.04;40.06;99874.00;4978043;28;5106;-52
2022/04/09 09:46:32;;;;;;;;;;;;;;;21.06;40.11;99882.69;4979483;28;4181;-54
2022/04/09 09:48:59;;;;;;;;;;;;;;;21.03;40.16;99858.88;4974149;28;4137;-56
2022/04/09 09:51:25;;;;;;;;;;;;;;;21.02;40.34;99882.56;4975863;28;4277;-57
2022/04/09 09:54:05;;;;;;;;;;;;;;;21.12;40.14;99868.47;4974476;28;4336;-57
2022/04/09 09:56:32;;;;;;;;;;;;;;;21.08;40.20;99871.97;4971043;28;5605;-57
2022/04/09 09:58:59;;;;;;;;;;;;;;;21.02;40.19;99876.81;4970925;28;4122;-54
2022/04/09 10:01:26;;;;;;;;;;;;;;;21.02;40.32;99876.81;4976581;28;4243;-57
2022/04/09 10:03:53;;;;;;;;;;;;;;;21.07;40.21;99866.88;4976128;28;4290;-57
2022/04/09 10:06:20;;;;;;;;;;;;;;;21.09;40.25;99887.09;4971302;28;4335;-56
2022/04/09 10:08:47;;;;;;;;;;;;;;;21.07;40.26;99890.66;4974929;28;4172;-57
2022/04/09 10:11:17;;;;;;;;;;;;;;;21.10;40.26;99883.53;4971022;28;4452;-55
2022/04/09 10:13:43;;;;;;;;;;;;;;;21.10;40.30;99882.81;4970730;28;4320;-56
2022/04/09 10:16:11;;;;;;;;;;;;;;;21.05;40.48;99876.19;4970436;28;5302;-56
2022/04/09 10:18:37;;;;;;;;;;;;;;;21.10;40.48;99886.41;4976006;28;5001;-57
2022/04/09 10:21:05;;;;;;;;;;;;;;;21.10;40.54;99871.28;4974074;28;4190;-56
2022/04/09 10:23:33;;;;;;;;;;;;;;;21.08;40.48;99862.59;4974660;28;4164;-52
2022/04/09 10:25:59;;;;;;;;;;;;;;;21.05;40.66;99886.97;4972532;28;4192;-55
2022/04/09 10:28:30;;;;;;;;;;;;;;;21.11;40.66;99892.91;4973649;28;4289;-52
2022/04/09 10:30:57;;;;;;;;;;;;;;;21.09;40.67;99887.09;4974754;28;4322;-55
2022/04/09 10:33:24;;;;;;;;;;;;;;;21.06;40.82;99874.06;4972347;28;4339;-54
2022/04/09 10:35:51;;;;;;;;;;;;;;;21.08;40.85;99885.63;4974681;28;4323;-57
2022/04/09 10:38:20;;;;;;;;;;;;;;;21.12;40.84;99880.00;4974834;28;4200;-56
2022/04/09 10:40:50;;;;;;;;;;;;;;;21.07;40.95;99884.16;4975907;28;4277;-56
2022/04/09 10:43:37;;;;;;;;;;;;;;;21.11;40.95;99884.25;4973786;28;4197;-57
2022/04/09 10:46:05;;;;;;;;;;;;;;;21.09;40.94;99882.06;4976405;28;4127;-56
2022/04/09 10:48:32;;;;;;;;;;;;;;;21.07;41.16;99887.78;4971072;28;4145;-56
2022/04/09 10:51:04;;;;;;;;;;;;;;;21.03;41.17;99886.94;4976936;28;4058;-57
2022/04/09 10:53:31;;;;;;;;;;;;;;;21.00;41.29;99894.03;4972505;28;4241;-57
2022/04/09 10:56:31;;;;;;;;;;;;;;;20.99;41.29;99878.91;4970406;28;4225;-58
2022/04/09 10:59:11;;;;;;;;;;;;;;;20.99;41.26;99909.84;4970250;28;4176;-61
2022/04/09 11:01:46;;;;;;;;;;;;;;;20.47;35.15;99873.78;4975948;28;4259;-64
2022/04/09 11:04:32;;;;;;;;;;;;;;;19.47;33.18;99876.31;4971022;28;4313;-64
2022/04/09 11:07:12;;;;;;;;;;;;;;;19.50;32.11;99897.94;4975095;28;4204;-64
2022/04/09 11:09:51;;;;;;;;;;;;;;;19.68;30.65;99892.09;4963575;28;4371;-64
2022/04/09 11:12:21;;;;;;;;;;;;;;;19.49;30.85;99887.84;4972855;28;4260;-61
2022/04/09 11:14:51;;;;;;;;;;;;;;;19.74;30.01;99918.16;4971979;28;4071;-58
2022/04/09 11:17:17;;;;;;;;;;;;;;;19.74;29.24;99891.56;4972335;28;4567;-52
2022/04/09 11:19:44;;;;;;;;;;;;;;;19.90;29.82;99883.47;4968214;28;4089;-55
2022/04/09 11:22:15;;;;;;;;;;;;;;;20.10;30.58;99889.16;4975207;28;4317;-56
2022/04/09 11:24:42;;;;;;;;;;;;;;;20.26;32.43;99894.69;4976396;28;4215;-57
2022/04/09 11:27:10;;;;;;;;;;;;;;;20.35;33.71;99895.69;4971665;28;6368;-56
2022/04/09 11:29:37;;;;;;;;;;;;;;;20.39;33.88;99896.53;4973882;28;4293;-54
2022/04/09 11:32:04;;;;;;;;;;;;;;;20.44;33.71;99894.53;4973444;28;4396;-57
2022/04/09 11:34:46;;;;;;;;;;;;;;;20.40;33.91;99912.38;4969938;28;5354;-54
2022/04/09 11:37:12;;;;;;;;;;;;;;;20.40;34.13;99909.50;4968808;28;4261;-57
2022/04/09 11:39:42;;;;;;;;;;;;;;;20.40;34.45;99918.13;4977248;28;4274;-55
2022/04/09 11:42:09;;;;;;;;;;;;;;;20.41;34.92;99913.88;4966953;28;4108;-57
2022/04/09 11:44:38;;;;;;;;;;;;;;;20.43;35.18;99913.94;4973042;28;5248;-56
2022/04/09 11:47:09;;;;;;;;;;;;;;;20.41;35.61;99911.00;4974578;28;4240;-58
2022/04/09 11:49:35;;;;;;;;;;;;;;;20.48;35.90;99909.03;4978386;28;4144;-56
2022/04/09 11:52:02;;;;;;;;;;;;;;;20.68;36.62;99908.94;4967736;28;5338;-59
2022/04/09 11:54:32;;;;;;;;;;;;;;;20.71;36.53;99913.34;4969168;28;5639;-60
2022/04/09 11:56:59;;;;;;;;;;;;;;;20.83;36.63;99907.22;4976734;28;5418;-60
2022/04/09 11:59:25;;;;;;;;;;;;;;;20.88;36.56;99903.78;4976278;28;4255;-60
2022/04/09 12:01:52;;;;;;;;;;;;;;;20.89;37.01;99902.38;4972930;28;4277;-61
2022/04/09 12:04:20;;;;;;;;;;;;;;;21.04;36.83;99891.25;4978303;28;4270;-61
2022/04/09 12:06:46;;;;;;;;;;;;;;;21.06;36.87;99894.94;4973780;28;4151;-62
2022/04/09 12:09:13;;;;;;;;;;;;;;;21.10;37.10;99906.56;4976153;28;4219;-61
2022/04/09 12:11:41;;;;;;;;;;;;;;;21.06;37.55;99906.44;4976005;28;4170;-59
2022/04/09 12:14:11;;;;;;;;;;;;;;;21.11;37.71;99918.81;4974602;28;5310;-52
2022/04/09 12:16:38;;;;;;;;;;;;;;;21.17;37.92;99916.09;4973007;28;4576;-48
2022/04/09 12:19:07;;;;;;;;;;;;;;;21.16;38.02;99923.25;4960368;28;4007;-51
2022/04/09 12:21:35;;;;;;;;;;;;;;;21.10;38.09;99935.34;4967726;28;4110;-53
2022/04/09 12:24:05;;;;;;;;;;;;;;;21.17;38.00;99939.13;4974931;28;5272;-56
2022/04/09 12:26:32;;;;;;;;;;;;;;;21.22;38.22;99940.72;4975354;28;5267;-56
2022/04/09 12:29:05;;;;;;;;;;;;;;;21.25;38.25;99950.13;4970576;28;5348;-49
2022/04/09 12:31:32;;;;;;;;;;;;;;;21.20;38.75;99948.56;4974820;28;4168;-58
2022/04/09 12:33:59;;;;;;;;;;;;;;;21.08;38.48;99940.31;4976996;28;4085;-61
2022/04/09 12:36:25;;;;;;;;;;;;;;;21.07;38.92;99950.34;4979082;28;5509;-60
2022/04/09 12:38:51;;;;;;;;;;;;;;;21.09;38.94;99961.91;4975289;28;5636;-61
2022/04/09 12:41:18;;;;;;;;;;;;;;;21.06;39.15;99957.53;4976524;28;5483;-59
2022/04/09 12:43:46;;;;;;;;;;;;;;;21.01;39.36;99967.47;4975845;28;5565;-59
2022/04/09 12:46:15;;;;;;;;;;;;;;;21.01;39.45;99967.47;4972769;28;4056;-59
2022/04/09 12:48:41;;;;;;;;;;;;;;;21.12;39.52;99966.34;4979411;28;4255;-58
2022/04/09 12:51:08;;;;;;;;;;;;;;;21.10;39.61;99980.69;4975837;28;4578;-56
2022/04/09 12:53:34;;;;;;;;;;;;;;;21.08;39.00;99971.97;4976330;28;4241;-51
2022/04/09 12:56:05;;;;;;;;;;;;;;;21.21;39.18;99967.28;4974769;28;4187;-58
2022/04/09 12:58:31;;;;;;;;;;;;;;;21.34;39.80;99980.63;4973279;28;4191;-55
2022/04/09 13:00:57;;;;;;;;;;;;;;;21.46;39.18;99974.50;4976577;28;4269;-56
2022/04/09 13:03:24;;;;;;;;;;;;;;;21.47;38.97;99981.75;4975890;28;5377;-55